sensor_id;sensor_type;location;lat;lon;timestamp;temperature;humidity
64833;HTU21D;51290;45.060;38.948;2023-08-17T00:01:04;26.65;42.39
64833;HTU21D;51290;45.060;38.948;2023-08-17T00:03:30;26.63;42.35
64833;HTU21D;51290;45.060;38.948;2023-08-17T00:05:56;26.61;42.41
64833;HTU21D;51290;45.060;38.948;2023-08-17T00:08:22;26.60;42.52
64833;HTU21D;51290;45.060;38.948;2023-08-17T00:10:48;26.58;42.53
64833;HTU21D;51290;45.060;38.948;2023-08-17T00:13:15;26.57;42.71
64833;HTU21D;51290;45.060;38.948;2023-08-17T00:15:41;26.58;42.68
64833;HTU21D;51290;45.060;38.948;2023-08-17T00:18:07;26.58;42.60
64833;HTU21D;51290;45.060;38.948;2023-08-17T00:20:33;26.56;42.60
64833;HTU21D;51290;45.060;38.948;2023-08-17T00:22:59;26.52;42.62
64833;HTU21D;51290;45.060;38.948;2023-08-17T00:25:25;26.48;42.57
64833;HTU21D;51290;45.060;38.948;2023-08-17T00:27:51;26.43;42.75
64833;HTU21D;51290;45.060;38.948;2023-08-17T00:30:17;26.48;42.87
64833;HTU21D;51290;45.060;38.948;2023-08-17T00:32:43;26.47;42.81
64833;HTU21D;51290;45.060;38.948;2023-08-17T00:35:11;26.48;42.87
64833;HTU21D;51290;45.060;38.948;2023-08-17T00:37:37;26.48;43.03
64833;HTU21D;51290;45.060;38.948;2023-08-17T00:40:03;26.50;42.88
64833;HTU21D;51290;45.060;38.948;2023-08-17T00:42:29;26.48;42.83
64833;HTU21D;51290;45.060;38.948;2023-08-17T00:44:55;26.46;42.90
64833;HTU21D;51290;45.060;38.948;2023-08-17T00:47:21;26.45;43.10
64833;HTU21D;51290;45.060;38.948;2023-08-17T00:49:47;26.45;42.94
64833;HTU21D;51290;45.060;38.948;2023-08-17T00:52:14;26.41;42.93
64833;HTU21D;51290;45.060;38.948;2023-08-17T00:54:41;26.38;42.93
64833;HTU21D;51290;45.060;38.948;2023-08-17T00:57:08;26.35;43.05
64833;HTU21D;51290;45.060;38.948;2023-08-17T00:59:35;26.32;43.13
64833;HTU21D;51290;45.060;38.948;2023-08-17T01:02:02;26.27;43.08
64833;HTU21D;51290;45.060;38.948;2023-08-17T01:04:28;26.24;43.17
64833;HTU21D;51290;45.060;38.948;2023-08-17T01:06:54;26.23;43.22
64833;HTU21D;51290;45.060;38.948;2023-08-17T01:09:20;26.21;43.16
64833;HTU21D;51290;45.060;38.948;2023-08-17T01:12:17;26.18;43.18
64833;HTU21D;51290;45.060;38.948;2023-08-17T01:17:52;26.12;43.18
64833;HTU21D;51290;45.060;38.948;2023-08-17T01:20:21;26.07;43.38
64833;HTU21D;51290;45.060;38.948;2023-08-17T01:22:50;26.07;43.32
64833;HTU21D;51290;45.060;38.948;2023-08-17T01:25:17;26.04;43.33
64833;HTU21D;51290;45.060;38.948;2023-08-17T01:27:45;26.01;43.45
64833;HTU21D;51290;45.060;38.948;2023-08-17T01:30:14;26.02;43.46
64833;HTU21D;51290;45.060;38.948;2023-08-17T01:35:28;25.97;43.85
64833;HTU21D;51290;45.060;38.948;2023-08-17T01:38:00;25.96;43.58
64833;HTU21D;51290;45.060;38.948;2023-08-17T01:40:31;25.98;43.60
64833;HTU21D;51290;45.060;38.948;2023-08-17T01:42:58;25.98;43.51
64833;HTU21D;51290;45.060;38.948;2023-08-17T01:45:25;25.97;43.44
64833;HTU21D;51290;45.060;38.948;2023-08-17T01:47:51;25.95;43.42
64833;HTU21D;51290;45.060;38.948;2023-08-17T01:50:20;25.94;43.59
64833;HTU21D;51290;45.060;38.948;2023-08-17T01:52:48;25.92;43.56
64833;HTU21D;51290;45.060;38.948;2023-08-17T01:55:16;25.90;43.57
64833;HTU21D;51290;45.060;38.948;2023-08-17T01:57:42;25.86;43.56
64833;HTU21D;51290;45.060;38.948;2023-08-17T02:00:09;25.82;43.66
64833;HTU21D;51290;45.060;38.948;2023-08-17T02:02:41;25.80;43.73
64833;HTU21D;51290;45.060;38.948;2023-08-17T02:05:07;25.78;43.78
64833;HTU21D;51290;45.060;38.948;2023-08-17T02:07:34;25.77;43.75
64833;HTU21D;51290;45.060;38.948;2023-08-17T02:10:00;25.73;43.77
64833;HTU21D;51290;45.060;38.948;2023-08-17T02:12:27;25.71;43.93
64833;HTU21D;51290;45.060;38.948;2023-08-17T02:14:53;25.68;43.95
64833;HTU21D;51290;45.060;38.948;2023-08-17T02:17:19;25.66;43.94
64833;HTU21D;51290;45.060;38.948;2023-08-17T02:19:47;25.62;43.96
64833;HTU21D;51290;45.060;38.948;2023-08-17T02:22:15;25.60;44.06
64833;HTU21D;51290;45.060;38.948;2023-08-17T02:24:41;25.57;44.04
64833;HTU21D;51290;45.060;38.948;2023-08-17T02:27:09;25.54;44.13
64833;HTU21D;51290;45.060;38.948;2023-08-17T02:29:36;25.51;44.13
64833;HTU21D;51290;45.060;38.948;2023-08-17T02:32:02;25.48;44.15
64833;HTU21D;51290;45.060;38.948;2023-08-17T02:34:28;25.45;44.16
64833;HTU21D;51290;45.060;38.948;2023-08-17T02:36:54;25.43;44.28
64833;HTU21D;51290;45.060;38.948;2023-08-17T02:39:20;25.39;44.41
64833;HTU21D;51290;45.060;38.948;2023-08-17T02:41:47;25.38;44.45
64833;HTU21D;51290;45.060;38.948;2023-08-17T02:44:15;25.35;44.48
64833;HTU21D;51290;45.060;38.948;2023-08-17T02:46:41;25.33;44.48
64833;HTU21D;51290;45.060;38.948;2023-08-17T02:49:07;25.31;44.77
64833;HTU21D;51290;45.060;38.948;2023-08-17T02:51:33;25.29;44.69
64833;HTU21D;51290;45.060;38.948;2023-08-17T02:53:59;25.30;44.74
64833;HTU21D;51290;45.060;38.948;2023-08-17T02:56:25;25.29;44.77
64833;HTU21D;51290;45.060;38.948;2023-08-17T02:58:51;25.30;44.80
64833;HTU21D;51290;45.060;38.948;2023-08-17T03:01:17;25.30;44.79
64833;HTU21D;51290;45.060;38.948;2023-08-17T03:03:43;25.31;44.84
64833;HTU21D;51290;45.060;38.948;2023-08-17T03:06:11;25.32;44.85
64833;HTU21D;51290;45.060;38.948;2023-08-17T03:08:39;25.33;44.93
64833;HTU21D;51290;45.060;38.948;2023-08-17T03:11:05;25.34;44.97
64833;HTU21D;51290;45.060;38.948;2023-08-17T03:13:33;25.37;44.96
64833;HTU21D;51290;45.060;38.948;2023-08-17T03:15:59;25.39;45.06
64833;HTU21D;51290;45.060;38.948;2023-08-17T03:18:25;25.44;45.03
64833;HTU21D;51290;45.060;38.948;2023-08-17T03:20:51;25.50;45.09
64833;HTU21D;51290;45.060;38.948;2023-08-17T03:23:17;25.58;44.98
64833;HTU21D;51290;45.060;38.948;2023-08-17T03:25:43;25.69;44.87
64833;HTU21D;51290;45.060;38.948;2023-08-17T03:28:11;25.90;44.84
64833;HTU21D;51290;45.060;38.948;2023-08-17T03:30:37;26.43;44.12
64833;HTU21D;51290;45.060;38.948;2023-08-17T03:33:04;27.14;42.99
64833;HTU21D;51290;45.060;38.948;2023-08-17T03:35:31;27.82;41.84
64833;HTU21D;51290;45.060;38.948;2023-08-17T03:37:57;28.44;40.86
64833;HTU21D;51290;45.060;38.948;2023-08-17T03:40:23;29.03;39.97
64833;HTU21D;51290;45.060;38.948;2023-08-17T03:42:49;29.58;39.12
64833;HTU21D;51290;45.060;38.948;2023-08-17T03:45:16;30.11;38.23
64833;HTU21D;51290;45.060;38.948;2023-08-17T03:47:42;30.38;37.60
64833;HTU21D;51290;45.060;38.948;2023-08-17T03:50:09;30.55;37.22
64833;HTU21D;51290;45.060;38.948;2023-08-17T03:52:36;30.74;37.08
64833;HTU21D;51290;45.060;38.948;2023-08-17T03:55:02;31.01;36.74
64833;HTU21D;51290;45.060;38.948;2023-08-17T03:57:30;31.18;36.14
64833;HTU21D;51290;45.060;38.948;2023-08-17T03:59:56;31.29;36.11
64833;HTU21D;51290;45.060;38.948;2023-08-17T04:02:22;31.33;36.00
64833;HTU21D;51290;45.060;38.948;2023-08-17T04:04:48;30.92;36.21
64833;HTU21D;51290;45.060;38.948;2023-08-17T04:07:21;30.21;37.25
64833;HTU21D;51290;45.060;38.948;2023-08-17T04:09:47;29.54;38.33
64833;HTU21D;51290;45.060;38.948;2023-08-17T04:12:14;29.06;39.18
64833;HTU21D;51290;45.060;38.948;2023-08-17T04:14:40;28.70;39.81
64833;HTU21D;51290;45.060;38.948;2023-08-17T04:17:06;28.41;40.23
64833;HTU21D;51290;45.060;38.948;2023-08-17T04:19:32;28.18;40.60
64833;HTU21D;51290;45.060;38.948;2023-08-17T04:21:58;27.97;40.85
64833;HTU21D;51290;45.060;38.948;2023-08-17T04:24:24;27.82;41.16
64833;HTU21D;51290;45.060;38.948;2023-08-17T04:26:51;27.73;41.42
64833;HTU21D;51290;45.060;38.948;2023-08-17T04:29:17;27.72;41.57
64833;HTU21D;51290;45.060;38.948;2023-08-17T04:31:43;27.74;41.59
64833;HTU21D;51290;45.060;38.948;2023-08-17T04:34:09;27.75;41.61
64833;HTU21D;51290;45.060;38.948;2023-08-17T04:36:38;27.83;41.69
64833;HTU21D;51290;45.060;38.948;2023-08-17T04:39:04;27.89;41.58
64833;HTU21D;51290;45.060;38.948;2023-08-17T04:41:31;27.98;41.51
64833;HTU21D;51290;45.060;38.948;2023-08-17T04:43:57;28.04;41.38
64833;HTU21D;51290;45.060;38.948;2023-08-17T04:46:23;28.08;41.31
64833;HTU21D;51290;45.060;38.948;2023-08-17T04:48:49;28.11;41.25
64833;HTU21D;51290;45.060;38.948;2023-08-17T04:51:15;28.12;41.29
64833;HTU21D;51290;45.060;38.948;2023-08-17T04:53:41;28.16;41.26
64833;HTU21D;51290;45.060;38.948;2023-08-17T04:56:08;28.19;41.20
64833;HTU21D;51290;45.060;38.948;2023-08-17T04:58:34;28.17;41.16
64833;HTU21D;51290;45.060;38.948;2023-08-17T05:01:00;28.18;41.18
64833;HTU21D;51290;45.060;38.948;2023-08-17T05:03:26;28.21;41.20
64833;HTU21D;51290;45.060;38.948;2023-08-17T05:05:52;28.24;41.13
64833;HTU21D;51290;45.060;38.948;2023-08-17T05:08:19;28.25;41.07
64833;HTU21D;51290;45.060;38.948;2023-08-17T05:10:48;28.30;41.14
64833;HTU21D;51290;45.060;38.948;2023-08-17T05:13:14;28.34;41.12
64833;HTU21D;51290;45.060;38.948;2023-08-17T05:15:41;28.43;41.06
64833;HTU21D;51290;45.060;38.948;2023-08-17T05:18:08;28.59;41.20
64833;HTU21D;51290;45.060;38.948;2023-08-17T05:20:37;28.80;40.82
64833;HTU21D;51290;45.060;38.948;2023-08-17T05:23:03;28.91;40.57
64833;HTU21D;51290;45.060;38.948;2023-08-17T05:25:31;29.02;40.41
64833;HTU21D;51290;45.060;38.948;2023-08-17T05:27:57;29.13;40.31
64833;HTU21D;51290;45.060;38.948;2023-08-17T05:30:23;29.26;40.19
64833;HTU21D;51290;45.060;38.948;2023-08-17T05:32:50;29.44;40.13
64833;HTU21D;51290;45.060;38.948;2023-08-17T05:35:17;29.61;39.71
64833;HTU21D;51290;45.060;38.948;2023-08-17T05:37:47;29.75;39.69
64833;HTU21D;51290;45.060;38.948;2023-08-17T05:40:13;29.86;39.11
64833;HTU21D;51290;45.060;38.948;2023-08-17T05:42:44;29.87;38.82
64833;HTU21D;51290;45.060;38.948;2023-08-17T05:45:11;29.88;38.84
64833;HTU21D;51290;45.060;38.948;2023-08-17T05:47:37;29.94;38.73
64833;HTU21D;51290;45.060;38.948;2023-08-17T05:50:03;30.00;38.71
64833;HTU21D;51290;45.060;38.948;2023-08-17T05:52:29;30.11;38.69
64833;HTU21D;51290;45.060;38.948;2023-08-17T05:54:55;30.24;38.41
64833;HTU21D;51290;45.060;38.948;2023-08-17T05:57:21;30.38;38.17
64833;HTU21D;51290;45.060;38.948;2023-08-17T05:59:50;30.46;37.90
64833;HTU21D;51290;45.060;38.948;2023-08-17T06:02:16;30.48;37.85
64833;HTU21D;51290;45.060;38.948;2023-08-17T06:04:42;30.54;37.82
64833;HTU21D;51290;45.060;38.948;2023-08-17T06:07:08;30.64;37.85
64833;HTU21D;51290;45.060;38.948;2023-08-17T06:09:34;30.79;37.66
64833;HTU21D;51290;45.060;38.948;2023-08-17T06:12:01;30.85;37.41
64833;HTU21D;51290;45.060;38.948;2023-08-17T06:14:27;30.84;37.01
64833;HTU21D;51290;45.060;38.948;2023-08-17T06:16:55;30.76;37.11
64833;HTU21D;51290;45.060;38.948;2023-08-17T06:19:21;30.68;37.02
64833;HTU21D;51290;45.060;38.948;2023-08-17T06:21:47;30.66;37.09
64833;HTU21D;51290;45.060;38.948;2023-08-17T06:24:13;30.72;37.08
64833;HTU21D;51290;45.060;38.948;2023-08-17T06:26:39;30.81;36.82
64833;HTU21D;51290;45.060;38.948;2023-08-17T06:29:05;30.90;36.70
64833;HTU21D;51290;45.060;38.948;2023-08-17T06:31:31;30.98;36.67
64833;HTU21D;51290;45.060;38.948;2023-08-17T06:34:00;31.10;36.54
64833;HTU21D;51290;45.060;38.948;2023-08-17T06:36:30;31.18;36.50
64833;HTU21D;51290;45.060;38.948;2023-08-17T06:38:57;31.37;36.48
64833;HTU21D;51290;45.060;38.948;2023-08-17T06:41:23;31.44;36.04
64833;HTU21D;51290;45.060;38.948;2023-08-17T06:43:55;31.44;35.74
64833;HTU21D;51290;45.060;38.948;2023-08-17T06:46:21;31.42;35.62
64833;HTU21D;51290;45.060;38.948;2023-08-17T06:48:48;31.43;35.38
64833;HTU21D;51290;45.060;38.948;2023-08-17T06:51:14;31.46;35.37
64833;HTU21D;51290;45.060;38.948;2023-08-17T06:53:41;31.50;35.33
64833;HTU21D;51290;45.060;38.948;2023-08-17T06:56:07;31.53;35.37
64833;HTU21D;51290;45.060;38.948;2023-08-17T06:58:35;31.57;35.37
64833;HTU21D;51290;45.060;38.948;2023-08-17T07:01:01;31.64;35.28
64833;HTU21D;51290;45.060;38.948;2023-08-17T07:03:27;31.68;35.16
64833;HTU21D;51290;45.060;38.948;2023-08-17T07:05:54;31.67;35.05
64833;HTU21D;51290;45.060;38.948;2023-08-17T07:08:19;31.64;35.05
64833;HTU21D;51290;45.060;38.948;2023-08-17T07:10:45;31.69;34.92
64833;HTU21D;51290;45.060;38.948;2023-08-17T07:13:14;31.76;34.95
64833;HTU21D;51290;45.060;38.948;2023-08-17T07:15:46;31.94;35.06
64833;HTU21D;51290;45.060;38.948;2023-08-17T07:18:14;32.15;34.60
64833;HTU21D;51290;45.060;38.948;2023-08-17T07:20:40;32.25;34.21
64833;HTU21D;51290;45.060;38.948;2023-08-17T07:23:06;32.28;33.96
64833;HTU21D;51290;45.060;38.948;2023-08-17T07:25:32;32.26;33.96
64833;HTU21D;51290;45.060;38.948;2023-08-17T07:27:59;32.29;34.01
64833;HTU21D;51290;45.060;38.948;2023-08-17T07:30:25;32.33;33.76
64833;HTU21D;51290;45.060;38.948;2023-08-17T07:32:51;32.30;33.67
64833;HTU21D;51290;45.060;38.948;2023-08-17T07:35:17;32.33;33.83
64833;HTU21D;51290;45.060;38.948;2023-08-17T07:37:43;32.44;33.81
64833;HTU21D;51290;45.060;38.948;2023-08-17T07:40:09;32.53;33.48
64833;HTU21D;51290;45.060;38.948;2023-08-17T07:42:36;32.63;33.34
64833;HTU21D;51290;45.060;38.948;2023-08-17T07:45:02;32.71;32.96
64833;HTU21D;51290;45.060;38.948;2023-08-17T07:47:37;32.69;32.98
64833;HTU21D;51290;45.060;38.948;2023-08-17T07:50:04;32.63;32.94
64833;HTU21D;51290;45.060;38.948;2023-08-17T07:52:31;32.61;32.86
64833;HTU21D;51290;45.060;38.948;2023-08-17T07:54:57;32.66;32.92
64833;HTU21D;51290;45.060;38.948;2023-08-17T07:57:23;32.75;32.87
64833;HTU21D;51290;45.060;38.948;2023-08-17T07:59:49;32.86;32.64
64833;HTU21D;51290;45.060;38.948;2023-08-17T08:02:17;32.96;32.10
64833;HTU21D;51290;45.060;38.948;2023-08-17T08:04:43;32.98;31.88
64833;HTU21D;51290;45.060;38.948;2023-08-17T08:07:09;33.08;31.70
64833;HTU21D;51290;45.060;38.948;2023-08-17T08:09:35;33.15;31.35
64833;HTU21D;51290;45.060;38.948;2023-08-17T08:12:02;33.15;30.84
64833;HTU21D;51290;45.060;38.948;2023-08-17T08:14:28;33.19;30.82
64833;HTU21D;51290;45.060;38.948;2023-08-17T08:16:55;33.28;30.84
64833;HTU21D;51290;45.060;38.948;2023-08-17T08:19:21;33.32;30.57
64833;HTU21D;51290;45.060;38.948;2023-08-17T08:21:47;33.32;30.48
64833;HTU21D;51290;45.060;38.948;2023-08-17T08:24:13;33.35;30.48
64833;HTU21D;51290;45.060;38.948;2023-08-17T08:26:39;33.43;30.43
64833;HTU21D;51290;45.060;38.948;2023-08-17T08:29:05;33.58;30.44
64833;HTU21D;51290;45.060;38.948;2023-08-17T08:31:31;33.71;29.98
64833;HTU21D;51290;45.060;38.948;2023-08-17T08:33:57;33.89;29.87
64833;HTU21D;51290;45.060;38.948;2023-08-17T08:36:25;34.06;29.65
64833;HTU21D;51290;45.060;38.948;2023-08-17T08:38:51;34.16;29.51
64833;HTU21D;51290;45.060;38.948;2023-08-17T08:41:17;34.22;29.19
64833;HTU21D;51290;45.060;38.948;2023-08-17T08:43:43;34.24;28.75
64833;HTU21D;51290;45.060;38.948;2023-08-17T08:46:10;34.20;28.67
64833;HTU21D;51290;45.060;38.948;2023-08-17T08:48:38;34.18;28.57
64833;HTU21D;51290;45.060;38.948;2023-08-17T08:51:08;34.12;27.99
64833;HTU21D;51290;45.060;38.948;2023-08-17T08:53:38;34.10;28.12
64833;HTU21D;51290;45.060;38.948;2023-08-17T08:56:11;34.09;28.04
64833;HTU21D;51290;45.060;38.948;2023-08-17T08:58:41;34.05;28.00
64833;HTU21D;51290;45.060;38.948;2023-08-17T09:01:12;34.05;28.01
64833;HTU21D;51290;45.060;38.948;2023-08-17T09:03:40;34.04;27.91
64833;HTU21D;51290;45.060;38.948;2023-08-17T09:06:07;34.02;27.48
64833;HTU21D;51290;45.060;38.948;2023-08-17T09:08:38;33.99;27.68
64833;HTU21D;51290;45.060;38.948;2023-08-17T09:11:08;33.96;27.50
64833;HTU21D;51290;45.060;38.948;2023-08-17T09:13:34;33.95;27.58
64833;HTU21D;51290;45.060;38.948;2023-08-17T09:16:00;33.93;27.43
64833;HTU21D;51290;45.060;38.948;2023-08-17T09:18:27;33.92;27.25
64833;HTU21D;51290;45.060;38.948;2023-08-17T09:20:56;33.88;27.10
64833;HTU21D;51290;45.060;38.948;2023-08-17T09:23:22;33.83;27.39
64833;HTU21D;51290;45.060;38.948;2023-08-17T09:25:50;33.86;27.44
64833;HTU21D;51290;45.060;38.948;2023-08-17T09:28:28;33.88;27.61
64833;HTU21D;51290;45.060;38.948;2023-08-17T09:31:01;33.92;27.52
64833;HTU21D;51290;45.060;38.948;2023-08-17T09:33:29;33.96;26.84
64833;HTU21D;51290;45.060;38.948;2023-08-17T09:35:57;33.97;27.43
64833;HTU21D;51290;45.060;38.948;2023-08-17T09:38:24;33.96;27.13
64833;HTU21D;51290;45.060;38.948;2023-08-17T09:40:52;33.96;27.31
64833;HTU21D;51290;45.060;38.948;2023-08-17T09:43:18;33.96;27.43
64833;HTU21D;51290;45.060;38.948;2023-08-17T09:45:50;34.00;27.44
64833;HTU21D;51290;45.060;38.948;2023-08-17T09:48:17;34.01;27.06
64833;HTU21D;51290;45.060;38.948;2023-08-17T09:50:45;34.00;27.05
64833;HTU21D;51290;45.060;38.948;2023-08-17T09:53:18;34.00;27.10
64833;HTU21D;51290;45.060;38.948;2023-08-17T09:55:48;34.00;27.33
64833;HTU21D;51290;45.060;38.948;2023-08-17T09:58:17;34.04;27.35
64833;HTU21D;51290;45.060;38.948;2023-08-17T10:00:45;34.06;27.22
64833;HTU21D;51290;45.060;38.948;2023-08-17T10:03:21;34.07;27.14
64833;HTU21D;51290;45.060;38.948;2023-08-17T10:06:01;34.05;27.00
64833;HTU21D;51290;45.060;38.948;2023-08-17T10:08:31;34.05;27.04
64833;HTU21D;51290;45.060;38.948;2023-08-17T10:11:02;34.02;27.18
64833;HTU21D;51290;45.060;38.948;2023-08-17T10:13:48;34.01;26.97
64833;HTU21D;51290;45.060;38.948;2023-08-17T10:19:41;34.11;26.75
64833;HTU21D;51290;45.060;38.948;2023-08-17T10:25:12;34.17;27.08
64833;HTU21D;51290;45.060;38.948;2023-08-17T10:27:41;34.16;27.08
64833;HTU21D;51290;45.060;38.948;2023-08-17T10:30:11;34.17;27.11
64833;HTU21D;51290;45.060;38.948;2023-08-17T10:32:41;34.23;26.85
64833;HTU21D;51290;45.060;38.948;2023-08-17T10:35:11;34.23;26.81
64833;HTU21D;51290;45.060;38.948;2023-08-17T10:37:38;34.23;26.81
64833;HTU21D;51290;45.060;38.948;2023-08-17T10:40:10;34.32;26.71
64833;HTU21D;51290;45.060;38.948;2023-08-17T10:42:36;34.37;26.33
64833;HTU21D;51290;45.060;38.948;2023-08-17T10:45:31;34.40;26.36
64833;HTU21D;51290;45.060;38.948;2023-08-17T10:50:36;34.47;26.05
64833;HTU21D;51290;45.060;38.948;2023-08-17T10:53:11;34.45;25.87
64833;HTU21D;51290;45.060;38.948;2023-08-17T10:55:38;34.38;26.17
64833;HTU21D;51290;45.060;38.948;2023-08-17T10:58:08;34.34;26.11
64833;HTU21D;51290;45.060;38.948;2023-08-17T11:00:39;34.35;26.31
64833;HTU21D;51290;45.060;38.948;2023-08-17T11:03:23;34.37;26.43
64833;HTU21D;51290;45.060;38.948;2023-08-17T11:05:55;34.37;26.17
64833;HTU21D;51290;45.060;38.948;2023-08-17T11:08:31;34.39;26.10
64833;HTU21D;51290;45.060;38.948;2023-08-17T11:11:05;34.42;26.34
64833;HTU21D;51290;45.060;38.948;2023-08-17T11:13:44;34.45;26.45
64833;HTU21D;51290;45.060;38.948;2023-08-17T11:16:15;34.49;26.52
64833;HTU21D;51290;45.060;38.948;2023-08-17T11:18:42;34.52;26.24
64833;HTU21D;51290;45.060;38.948;2023-08-17T11:21:09;34.53;26.17
64833;HTU21D;51290;45.060;38.948;2023-08-17T11:23:37;34.52;26.12
64833;HTU21D;51290;45.060;38.948;2023-08-17T11:26:03;34.52;25.94
64833;HTU21D;51290;45.060;38.948;2023-08-17T11:28:30;34.55;25.92
64833;HTU21D;51290;45.060;38.948;2023-08-17T11:31:07;34.56;25.98
64833;HTU21D;51290;45.060;38.948;2023-08-17T11:33:36;34.59;25.97
64833;HTU21D;51290;45.060;38.948;2023-08-17T11:36:05;34.61;25.98
64833;HTU21D;51290;45.060;38.948;2023-08-17T11:38:36;34.61;26.00
64833;HTU21D;51290;45.060;38.948;2023-08-17T11:41:06;34.56;25.68
64833;HTU21D;51290;45.060;38.948;2023-08-17T11:43:35;34.53;25.84
64833;HTU21D;51290;45.060;38.948;2023-08-17T11:46:02;34.48;25.90
64833;HTU21D;51290;45.060;38.948;2023-08-17T11:48:28;34.47;26.03
64833;HTU21D;51290;45.060;38.948;2023-08-17T11:50:55;34.48;26.06
64833;HTU21D;51290;45.060;38.948;2023-08-17T11:53:24;34.51;25.87
64833;HTU21D;51290;45.060;38.948;2023-08-17T11:55:50;34.52;25.85
64833;HTU21D;51290;45.060;38.948;2023-08-17T11:58:17;34.54;25.90
64833;HTU21D;51290;45.060;38.948;2023-08-17T12:00:44;34.56;25.92
64833;HTU21D;51290;45.060;38.948;2023-08-17T12:03:14;34.61;25.67
64833;HTU21D;51290;45.060;38.948;2023-08-17T12:05:44;34.63;25.59
64833;HTU21D;51290;45.060;38.948;2023-08-17T12:08:12;34.62;25.59
64833;HTU21D;51290;45.060;38.948;2023-08-17T12:10:41;34.62;25.62
64833;HTU21D;51290;45.060;38.948;2023-08-17T12:13:11;34.62;25.49
64833;HTU21D;51290;45.060;38.948;2023-08-17T12:15:38;34.63;25.59
64833;HTU21D;51290;45.060;38.948;2023-08-17T12:18:06;34.60;25.46
64833;HTU21D;51290;45.060;38.948;2023-08-17T12:20:36;34.60;25.32
64833;HTU21D;51290;45.060;38.948;2023-08-17T12:23:05;34.60;25.47
64833;HTU21D;51290;45.060;38.948;2023-08-17T12:25:31;34.57;25.58
64833;HTU21D;51290;45.060;38.948;2023-08-17T12:27:59;34.57;25.47
64833;HTU21D;51290;45.060;38.948;2023-08-17T12:30:31;34.62;25.24
64833;HTU21D;51290;45.060;38.948;2023-08-17T12:32:59;34.64;25.07
64833;HTU21D;51290;45.060;38.948;2023-08-17T12:35:26;34.63;25.00
64833;HTU21D;51290;45.060;38.948;2023-08-17T12:37:53;34.62;24.92
64833;HTU21D;51290;45.060;38.948;2023-08-17T12:40:20;34.60;25.07
64833;HTU21D;51290;45.060;38.948;2023-08-17T12:42:47;34.56;25.07
64833;HTU21D;51290;45.060;38.948;2023-08-17T12:45:15;34.57;25.00
64833;HTU21D;51290;45.060;38.948;2023-08-17T12:48:02;34.57;25.11
64833;HTU21D;51290;45.060;38.948;2023-08-17T12:50:29;34.55;25.19
64833;HTU21D;51290;45.060;38.948;2023-08-17T12:52:59;34.56;25.08
64833;HTU21D;51290;45.060;38.948;2023-08-17T12:55:26;34.62;25.19
64833;HTU21D;51290;45.060;38.948;2023-08-17T12:57:52;34.69;25.06
64833;HTU21D;51290;45.060;38.948;2023-08-17T13:00:18;34.76;24.89
64833;HTU21D;51290;45.060;38.948;2023-08-17T13:02:47;34.82;24.85
64833;HTU21D;51290;45.060;38.948;2023-08-17T13:05:17;34.88;24.90
64833;HTU21D;51290;45.060;38.948;2023-08-17T13:07:43;34.93;24.87
64833;HTU21D;51290;45.060;38.948;2023-08-17T13:10:21;34.98;24.86
64833;HTU21D;51290;45.060;38.948;2023-08-17T13:12:47;35.05;24.69
64833;HTU21D;51290;45.060;38.948;2023-08-17T13:15:13;35.09;24.48
64833;HTU21D;51290;45.060;38.948;2023-08-17T13:17:44;35.12;24.47
64833;HTU21D;51290;45.060;38.948;2023-08-17T13:20:11;35.19;24.53
64833;HTU21D;51290;45.060;38.948;2023-08-17T13:22:39;35.27;24.43
64833;HTU21D;51290;45.060;38.948;2023-08-17T13:25:05;35.31;24.35
64833;HTU21D;51290;45.060;38.948;2023-08-17T13:27:32;35.35;24.26
64833;HTU21D;51290;45.060;38.948;2023-08-17T13:30:09;35.33;24.04
64833;HTU21D;51290;45.060;38.948;2023-08-17T13:32:37;35.30;23.89
64833;HTU21D;51290;45.060;38.948;2023-08-17T13:35:03;35.29;23.85
64833;HTU21D;51290;45.060;38.948;2023-08-17T13:37:31;35.29;23.96
64833;HTU21D;51290;45.060;38.948;2023-08-17T13:39:59;35.36;23.98
64833;HTU21D;51290;45.060;38.948;2023-08-17T13:42:26;35.42;23.83
64833;HTU21D;51290;45.060;38.948;2023-08-17T13:44:52;35.43;23.66
64833;HTU21D;51290;45.060;38.948;2023-08-17T13:47:18;35.37;23.55
64833;HTU21D;51290;45.060;38.948;2023-08-17T13:49:44;35.31;23.63
64833;HTU21D;51290;45.060;38.948;2023-08-17T13:52:11;35.27;23.29
64833;HTU21D;51290;45.060;38.948;2023-08-17T13:54:37;35.22;22.89
64833;HTU21D;51290;45.060;38.948;2023-08-17T13:57:03;35.15;23.15
64833;HTU21D;51290;45.060;38.948;2023-08-17T13:59:29;35.11;23.40
64833;HTU21D;51290;45.060;38.948;2023-08-17T14:01:56;35.11;23.45
64833;HTU21D;51290;45.060;38.948;2023-08-17T14:04:22;35.11;23.52
64833;HTU21D;51290;45.060;38.948;2023-08-17T14:06:49;35.13;23.59
64833;HTU21D;51290;45.060;38.948;2023-08-17T14:09:18;35.22;23.45
64833;HTU21D;51290;45.060;38.948;2023-08-17T14:11:45;35.24;23.42
64833;HTU21D;51290;45.060;38.948;2023-08-17T14:14:11;35.24;23.39
64833;HTU21D;51290;45.060;38.948;2023-08-17T14:16:38;35.19;23.43
64833;HTU21D;51290;45.060;38.948;2023-08-17T14:19:05;35.11;23.44
64833;HTU21D;51290;45.060;38.948;2023-08-17T14:21:32;35.05;23.40
64833;HTU21D;51290;45.060;38.948;2023-08-17T14:24:03;34.95;23.40
64833;HTU21D;51290;45.060;38.948;2023-08-17T14:26:31;34.90;23.35
64833;HTU21D;51290;45.060;38.948;2023-08-17T14:28:57;34.85;23.29
64833;HTU21D;51290;45.060;38.948;2023-08-17T14:31:23;34.80;23.34
64833;HTU21D;51290;45.060;38.948;2023-08-17T14:33:49;34.81;23.29
64833;HTU21D;51290;45.060;38.948;2023-08-17T14:36:16;34.79;23.29
64833;HTU21D;51290;45.060;38.948;2023-08-17T14:38:42;34.77;23.30
64833;HTU21D;51290;45.060;38.948;2023-08-17T14:41:10;34.71;23.37
64833;HTU21D;51290;45.060;38.948;2023-08-17T14:43:38;34.65;23.15
64833;HTU21D;51290;45.060;38.948;2023-08-17T14:46:04;34.59;23.08
64833;HTU21D;51290;45.060;38.948;2023-08-17T14:48:30;34.51;23.22
64833;HTU21D;51290;45.060;38.948;2023-08-17T14:51:01;34.47;23.22
64833;HTU21D;51290;45.060;38.948;2023-08-17T14:53:30;34.40;23.30
64833;HTU21D;51290;45.060;38.948;2023-08-17T14:55:59;34.34;23.51
64833;HTU21D;51290;45.060;38.948;2023-08-17T14:58:25;34.29;23.63
64833;HTU21D;51290;45.060;38.948;2023-08-17T15:00:51;34.24;23.80
64833;HTU21D;51290;45.060;38.948;2023-08-17T15:03:21;34.21;23.95
64833;HTU21D;51290;45.060;38.948;2023-08-17T15:05:50;34.20;24.10
64833;HTU21D;51290;45.060;38.948;2023-08-17T15:08:19;34.16;24.27
64833;HTU21D;51290;45.060;38.948;2023-08-17T15:10:47;34.19;24.43
64833;HTU21D;51290;45.060;38.948;2023-08-17T15:13:16;34.15;24.55
64833;HTU21D;51290;45.060;38.948;2023-08-17T15:15:46;34.14;24.72
64833;HTU21D;51290;45.060;38.948;2023-08-17T15:18:17;34.08;24.85
64833;HTU21D;51290;45.060;38.948;2023-08-17T15:20:43;34.03;25.02